KFEP/FEP METAR and TAF weather

Enter ICAO airport designator
Station Type Date Time Source
KFEP METAR 2021/10/22 18:30 UTC NOAA

KFEP 221830Z AUTO 30004KT 10SM SCT032 BKN042 OVC110 11/01 A3005 RMK AO2 T01060008


Station Type Date Time Source
KFEP Decoded METAR 2021/10/22 18:30 UTC NOAA

Freeport, Albertus Airport, IL, United States (KFEP) 42-14-47N 089-34-56W
Oct 22, 2021 - 02:30 PM EDT / 2021.10.22 1830 UTC
Wind: from the WNW (300 degrees) at 5 MPH (4 KT):0
Visibility: 10 mile(s):0
Sky conditions: overcast
Temperature: 51.1 F (10.6 C)
Dew Point: 33.4 F (0.8 C)
Relative Humidity: 50%
Pressure (altimeter): 30.05 in. Hg (1017 hPa)
ob: KFEP 221830Z AUTO 30004KT 10SM SCT032 BKN042 OVC110 11/01 A3005 RMK AO2 T01060008
cycle: 18

Station Type Date Time Source
KFEP TAF UTC NOAA

Error!

Example: see airport list